Terminal Aerodrome Forecast
Issued by NWS Charleston, WV

Home | Current Version | Previous Version | Text Only | Print | Product List | Glossary On
Versions: 1 2 3 4 5 6 7 8 9 10 11 12 13 14 15 16 17 18 19 20 21 22 23 24 25 26 27
347
FTUS41 KRLX 170227 AAA
TAFEKN
TAF AMD
KEKN 170227Z 1702/1724 00000KT 2SM BR FEW001 BKN070 OVC080
      TEMPO 1702/1705 4SM BR
     FM170900 18004KT P6SM -SHRA OVC021
     FM171100 19004KT 2SM -SHRA OVC008
     FM171300 19005KT 3SM -SHRA OVC008
     FM171800 21009G15KT 3SM -SHRA OVC010
     FM172100 23010G17KT 4SM -SHRA OVC015=

USA.gov is the U.S. government's official web portal to all federal, state and local government web resources and services.